Time;durP1;ratioP1;P1;durP2;ratioP2;P2;SDS_P1;SDS_P2;PMS_P1;PMS_P2;Temp;Humidity;BMP_temperature;BMP_pressure;BME280_temperature;BME280_humidity;BME280_pressure;Samples;Min_cycle;Max_cycle;Signal;HPM_P1;HPM_P2
2023/03/19 00:00:09;;;;;;;;;1.00;1.00;;;;;-142.59;100.00;56100.38;4972490;28;49687;-68
2023/03/19 00:02:35;;;;;;;;;1.50;1.50;;;;;-142.59;100.00;56100.38;4972309;28;49590;-67
2023/03/19 00:05:01;;;;;;;;;4.00;2.00;;;;;-142.59;100.00;56100.38;4971294;28;50707;-73
2023/03/19 00:07:26;;;;;;;;;3.75;2.25;;;;;-142.59;100.00;56100.38;4971410;28;49775;-63
2023/03/19 00:09:52;;;;;;;;;1.00;1.00;;;;;-142.59;100.00;56100.38;4972230;28;50027;-70
2023/03/19 00:12:17;;;;;;;;;1.25;1.25;;;;;-142.59;100.00;56100.38;4972633;28;50072;-64
2023/03/19 00:14:42;;;;;;;;;2.25;2.25;;;;;-142.59;100.00;56100.38;4972046;28;49744;-68
2023/03/19 00:17:08;;;;;;;;;0.00;0.00;;;;;-142.59;100.00;56100.38;4972444;28;49680;-66
2023/03/19 00:19:33;;;;;;;;;2.00;1.75;;;;;-142.59;100.00;56100.38;4972305;28;49979;-68
2023/03/19 00:21:59;;;;;;;;;3.00;3.00;;;;;-142.59;100.00;56100.38;4972748;28;50193;-62
2023/03/19 00:24:24;;;;;;;;;1.00;1.00;;;;;-142.59;100.00;56100.38;4972237;28;49772;-70
2023/03/19 00:26:50;;;;;;;;;2.00;2.00;;;;;-142.59;100.00;56100.38;4972124;28;49801;-62
2023/03/19 00:29:15;;;;;;;;;2.00;2.00;;;;;-142.59;100.00;56100.38;4972118;28;49648;-63
2023/03/19 00:31:41;;;;;;;;;1.75;0.75;;;;;-142.59;100.00;56100.38;4972426;28;50042;-73
2023/03/19 00:34:08;;;;;;;;;2.25;1.25;;;;;-142.59;100.00;56100.38;4972225;28;50776;-64
2023/03/19 00:36:33;;;;;;;;;2.00;2.00;;;;;-142.59;100.00;56100.38;4972210;28;49873;-70
2023/03/19 00:38:59;;;;;;;;;2.00;2.00;;;;;-142.59;100.00;56100.38;4971584;28;49822;-64
2023/03/19 00:41:25;;;;;;;;;3.00;3.00;;;;;-142.59;100.00;56100.38;4964739;28;49874;-63
2023/03/19 00:43:55;;;;;;;;;6.25;4.00;;;;;-142.59;100.00;56100.38;4952531;28;50895;-62
2023/03/19 00:46:21;;;;;;;;;5.50;4.00;;;;;-142.59;100.00;56100.38;4960581;28;49692;-62
2023/03/19 00:48:47;;;;;;;;;5.00;4.00;;;;;-142.59;100.00;56100.38;4971478;28;49892;-64
2023/03/19 00:51:12;;;;;;;;;4.00;3.00;;;;;-142.59;100.00;56100.38;4971942;28;49904;-63
2023/03/19 00:53:41;;;;;;;;;3.00;3.00;;;;;-142.59;100.00;56100.38;4971875;28;49674;-64
2023/03/19 00:56:07;;;;;;;;;4.00;4.00;;;;;-142.59;100.00;56100.38;4946944;28;50323;-61
2023/03/19 00:58:33;;;;;;;;;2.00;2.00;;;;;-142.59;100.00;56100.38;4929094;28;49929;-63
2023/03/19 01:00:59;;;;;;;;;2.00;2.00;;;;;-142.59;100.00;56100.38;4954276;28;49922;-62
2023/03/19 01:03:24;;;;;;;;;3.50;3.00;;;;;-142.59;100.00;56100.38;4971133;28;49721;-62
2023/03/19 01:05:50;;;;;;;;;4.75;3.00;;;;;-142.59;100.00;56100.38;4971617;28;49733;-65
2023/03/19 01:08:17;;;;;;;;;3.00;3.00;;;;;-142.59;100.00;56100.38;4971262;28;49986;-70
2023/03/19 01:10:43;;;;;;;;;2.00;2.00;;;;;-142.59;100.00;56100.38;4971153;28;49886;-74
2023/03/19 01:13:09;;;;;;;;;2.50;2.50;;;;;-142.59;100.00;56100.38;4971045;28;51193;-63
2023/03/19 01:15:39;;;;;;;;;3.00;2.00;;;;;-142.59;100.00;56100.38;4971701;28;50015;-62
2023/03/19 01:18:06;;;;;;;;;3.00;2.00;;;;;-142.59;100.00;56100.38;4971220;28;49774;-69
2023/03/19 01:20:32;;;;;;;;;1.00;1.00;;;;;-142.59;100.00;56100.38;4971368;28;49919;-63
2023/03/19 01:22:57;;;;;;;;;2.50;2.50;;;;;-142.59;100.00;56100.38;4953291;28;51667;-65
2023/03/19 01:25:23;;;;;;;;;3.25;3.00;;;;;-142.59;100.00;56100.38;4971109;28;49624;-74
2023/03/19 01:27:50;;;;;;;;;5.25;4.75;;;;;-142.59;100.00;56100.38;4970893;28;49852;-64
2023/03/19 01:30:16;;;;;;;;;3.75;3.25;;;;;-142.59;100.00;56100.38;4968118;28;49824;-62
2023/03/19 01:32:41;;;;;;;;;4.00;3.00;;;;;-142.59;100.00;56100.38;4952181;28;51869;-67
2023/03/19 01:35:08;;;;;;;;;5.00;5.00;;;;;-142.59;100.00;56100.38;4952661;28;49748;-68
2023/03/19 01:37:33;;;;;;;;;3.25;3.25;;;;;-142.59;100.00;56100.38;4952408;28;49715;-62
2023/03/19 01:39:59;;;;;;;;;3.75;2.50;;;;;-142.59;100.00;56100.38;4952342;28;50244;-68
2023/03/19 01:42:24;;;;;;;;;2.50;2.00;;;;;-142.59;100.00;56100.38;4952040;28;54965;-66
2023/03/19 01:44:49;;;;;;;;;5.25;4.75;;;;;-142.59;100.00;56100.38;4952169;28;49803;-65
2023/03/19 01:47:28;;;;;;;;;4.00;4.00;;;;;-142.59;100.00;56100.38;4952167;28;49972;-72
2023/03/19 01:49:55;;;;;;;;;4.25;3.50;;;;;-142.59;100.00;56100.38;4952338;28;49818;-68
2023/03/19 01:52:24;;;;;;;;;5.50;5.25;;;;;-142.59;100.00;56100.38;4952173;28;50900;-66
2023/03/19 01:54:51;;;;;;;;;3.75;3.50;;;;;-142.59;100.00;56100.38;4952242;28;49728;-65
2023/03/19 01:57:17;;;;;;;;;4.00;4.00;;;;;-142.59;100.00;56100.38;4952288;28;49732;-72
2023/03/19 01:59:47;;;;;;;;;5.00;5.00;;;;;-142.59;100.00;56100.38;4952286;28;49848;-63
2023/03/19 02:02:33;;;;;;;;;5.75;3.25;;;;;-142.59;100.00;56100.38;4951827;28;49843;-63
2023/03/19 02:05:09;;;;;;;;;3.75;3.00;;;;;-142.59;100.00;56100.38;4951861;28;49931;-69
2023/03/19 02:07:37;;;;;;;;;3.00;3.00;;;;;-142.59;100.00;56100.38;4951881;28;49823;-63
2023/03/19 02:10:08;;;;;;;;;4.00;4.00;;;;;-142.59;100.00;56100.38;4952224;28;49836;-63
2023/03/19 02:12:34;;;;;;;;;4.25;4.25;;;;;-142.59;100.00;56100.38;4933770;28;52331;-62
2023/03/19 02:15:00;;;;;;;;;4.75;4.00;;;;;-142.59;100.00;56100.38;4951743;28;49767;-69
2023/03/19 02:17:28;;;;;;;;;4.75;3.50;;;;;-142.59;100.00;56100.38;4952029;28;49907;-62
2023/03/19 02:20:04;;;;;;;;;2.50;2.50;;;;;-142.59;100.00;56100.38;4952431;28;49760;-62
2023/03/19 02:22:31;;;;;;;;;5.00;5.00;;;;;-142.59;100.00;56100.38;4958289;28;49974;-62
2023/03/19 02:25:00;;;;;;;;;4.25;4.25;;;;;-142.59;100.00;56100.38;4957830;28;49691;-62
2023/03/19 02:27:26;;;;;;;;;3.50;3.50;;;;;-142.59;100.00;56100.38;4952512;28;49703;-62
2023/03/19 02:29:51;;;;;;;;;4.00;4.00;;;;;-142.59;100.00;56100.38;4958220;28;49891;-65
2023/03/19 02:32:16;;;;;;;;;3.50;1.75;;;;;-142.59;100.00;56100.38;4976772;28;49790;-64
2023/03/19 02:34:43;;;;;;;;;8.00;4.50;;;;;-142.59;100.00;56100.38;4976134;28;56840;-73
2023/03/19 02:37:21;;;;;;;;;9.25;5.00;;;;;-142.59;100.00;56100.38;4976507;28;49660;-62
2023/03/19 02:40:10;;;;;;;;;4.75;4.50;;;;;-142.59;100.00;56100.38;4976746;28;49767;-61
2023/03/19 02:42:35;;;;;;;;;7.50;5.00;;;;;-142.59;100.00;56100.38;4976041;28;49733;-62
2023/03/19 02:45:00;;;;;;;;;6.00;5.00;;;;;-142.59;100.00;56100.38;4958420;28;50341;-62
2023/03/19 02:47:26;;;;;;;;;4.00;4.00;;;;;-142.59;100.00;56100.38;4976845;28;49855;-63
2023/03/19 02:49:52;;;;;;;;;4.25;4.25;;;;;-142.59;100.00;56100.38;4976964;28;49919;-63
2023/03/19 02:52:19;;;;;;;;;6.00;6.00;;;;;-142.59;100.00;56100.38;4958636;28;50693;-63
2023/03/19 02:54:45;;;;;;;;;3.75;3.75;;;;;-142.59;100.00;56100.38;4975238;28;49761;-63
2023/03/19 02:57:11;;;;;;;;;6.00;6.00;;;;;-142.59;100.00;56100.38;4976610;28;49668;-62
2023/03/19 02:59:37;;;;;;;;;3.00;3.00;;;;;-142.59;100.00;56100.38;4976105;28;49702;-62
2023/03/19 03:02:03;;;;;;;;;2.75;2.00;;;;;-142.59;100.00;56100.38;4975239;28;52043;-65
2023/03/19 03:04:30;;;;;;;;;3.75;3.00;;;;;-142.59;100.00;56100.38;4976476;28;49765;-62
2023/03/19 03:06:55;;;;;;;;;5.00;4.25;;;;;-142.59;100.00;56100.38;4975268;28;50005;-63
2023/03/19 03:09:21;;;;;;;;;4.25;4.00;;;;;-142.59;100.00;56100.38;4976586;28;49899;-63
2023/03/19 03:11:46;;;;;;;;;5.25;5.25;;;;;-142.59;100.00;56100.38;4976500;28;51697;-62
2023/03/19 03:14:12;;;;;;;;;5.00;5.00;;;;;-142.59;100.00;56100.38;4976349;28;49609;-67
2023/03/19 03:16:37;;;;;;;;;3.00;3.00;;;;;-142.59;100.00;56100.38;4976060;28;54747;-62
2023/03/19 03:19:03;;;;;;;;;4.50;3.50;;;;;-142.59;100.00;56100.38;4976756;28;49642;-64
2023/03/19 03:21:29;;;;;;;;;4.75;4.75;;;;;-142.59;100.00;56100.38;4976265;28;51006;-62
2023/03/19 03:23:55;;;;;;;;;5.25;5.00;;;;;-142.59;100.00;56100.38;4976216;28;49735;-62
2023/03/19 03:26:20;;;;;;;;;4.25;4.25;;;;;-142.59;100.00;56100.38;4976106;28;49820;-62
2023/03/19 03:28:46;;;;;;;;;6.75;5.50;;;;;-142.59;100.00;56100.38;4976262;28;49651;-62
2023/03/19 03:31:12;;;;;;;;;4.25;4.25;;;;;-142.59;100.00;56100.38;4975526;28;49743;-62
2023/03/19 03:33:38;;;;;;;;;3.00;3.00;;;;;-142.59;100.00;56100.38;4954578;28;49650;-68
2023/03/19 03:36:03;;;;;;;;;5.50;4.25;;;;;-142.59;100.00;56100.38;4973316;28;49996;-62
2023/03/19 03:38:28;;;;;;;;;3.50;3.00;;;;;-142.59;100.00;56100.38;4973194;28;49618;-62
2023/03/19 03:40:54;;;;;;;;;5.50;4.75;;;;;-142.59;100.00;56100.38;4972780;28;50780;-67
2023/03/19 03:43:20;;;;;;;;;4.00;4.00;;;;;-142.59;100.00;56100.38;4972618;28;49727;-65
2023/03/19 03:45:46;;;;;;;;;3.25;3.25;;;;;-142.59;100.00;56100.38;4972767;28;49897;-68
2023/03/19 03:48:12;;;;;;;;;4.25;4.25;;;;;-142.59;100.00;56100.38;4972812;28;49767;-67
2023/03/19 03:50:38;;;;;;;;;5.00;3.75;;;;;-142.59;100.00;56100.38;4972666;28;51194;-62
2023/03/19 03:53:04;;;;;;;;;4.50;4.50;;;;;-142.59;100.00;56100.38;4972632;28;49728;-62
2023/03/19 03:55:30;;;;;;;;;3.50;3.00;;;;;-142.59;100.00;56100.38;4972783;28;49934;-64
2023/03/19 03:57:56;;;;;;;;;5.75;4.00;;;;;-142.59;100.00;56100.38;4972063;28;49646;-61
2023/03/19 04:00:22;;;;;;;;;4.00;4.00;;;;;-142.59;100.00;56100.38;4953508;28;49788;-68
2023/03/19 04:02:48;;;;;;;;;5.50;5.50;;;;;-142.59;100.00;56100.38;4935807;28;49812;-73
2023/03/19 04:05:13;;;;;;;;;4.00;4.00;;;;;-142.59;100.00;56100.38;4953616;28;49733;-62
2023/03/19 04:07:39;;;;;;;;;5.00;5.00;;;;;-142.59;100.00;56100.38;4953995;28;49633;-67
2023/03/19 04:10:06;;;;;;;;;6.50;6.50;;;;;-142.59;100.00;56100.38;4953702;28;50040;-68
2023/03/19 04:12:32;;;;;;;;;6.00;4.75;;;;;-142.59;100.00;56100.38;4953276;28;49843;-63
2023/03/19 04:14:57;;;;;;;;;10.00;8.25;;;;;-142.59;100.00;56100.38;4953564;28;49880;-69
2023/03/19 04:17:22;;;;;;;;;10.25;7.25;;;;;-142.59;100.00;56100.38;4952401;28;49972;-73
2023/03/19 04:19:48;;;;;;;;;9.00;6.25;;;;;-142.59;100.00;56100.38;4953493;28;51686;-68
2023/03/19 04:22:14;;;;;;;;;5.00;5.00;;;;;-142.59;100.00;56100.38;4953309;28;49799;-72
2023/03/19 04:24:40;;;;;;;;;6.25;6.00;;;;;-142.59;100.00;56100.38;4953246;28;49558;-62
2023/03/19 04:27:06;;;;;;;;;6.00;4.75;;;;;-142.59;100.00;56100.38;4953695;28;49831;-62
2023/03/19 04:29:31;;;;;;;;;4.25;4.25;;;;;-142.59;100.00;56100.38;4953136;28;50418;-62
2023/03/19 04:31:57;;;;;;;;;4.00;4.00;;;;;-142.59;100.00;56100.38;4953245;28;50211;-61
2023/03/19 04:34:22;;;;;;;;;4.00;4.00;;;;;-142.59;100.00;56100.38;4953175;28;49870;-63
2023/03/19 04:36:48;;;;;;;;;5.50;5.50;;;;;-142.59;100.00;56100.38;4953397;28;49761;-64
2023/03/19 04:39:14;;;;;;;;;8.00;6.75;;;;;-142.59;100.00;56100.38;4952761;28;50808;-61
2023/03/19 04:41:39;;;;;;;;;7.50;7.50;;;;;-142.59;100.00;56100.38;4953125;28;50025;-67
2023/03/19 04:44:04;;;;;;;;;6.50;4.50;;;;;-142.59;100.00;56100.38;4953016;28;49760;-63
2023/03/19 04:46:30;;;;;;;;;5.75;5.50;;;;;-142.59;100.00;56100.38;4953377;28;49922;-62
2023/03/19 04:48:55;;;;;;;;;8.50;6.25;;;;;-142.59;100.00;56100.38;4952080;28;65583;-62
2023/03/19 04:51:20;;;;;;;;;8.00;7.00;;;;;-142.59;100.00;56100.38;4953189;28;50277;-63
2023/03/19 04:53:46;;;;;;;;;5.50;5.50;;;;;-142.59;100.00;56100.38;4953088;28;49803;-68
2023/03/19 04:56:15;;;;;;;;;5.00;4.50;;;;;-142.59;100.00;56100.38;4953132;28;49705;-62
2023/03/19 04:58:41;;;;;;;;;7.25;6.75;;;;;-142.59;100.00;56100.38;4971212;28;50989;-61
2023/03/19 05:01:06;;;;;;;;;6.75;6.75;;;;;-142.59;100.00;56100.38;4971451;28;50075;-69
2023/03/19 05:03:32;;;;;;;;;5.25;5.25;;;;;-142.59;100.00;56100.38;4971656;28;49778;-64
2023/03/19 05:05:57;;;;;;;;;5.50;5.50;;;;;-142.59;100.00;56100.38;4971711;28;49910;-62
2023/03/19 05:08:23;;;;;;;;;9.00;9.00;;;;;-142.59;100.00;56100.38;4971124;28;50655;-63
2023/03/19 05:10:48;;;;;;;;;11.50;10.50;;;;;-142.59;100.00;56100.38;4971809;28;50058;-71
2023/03/19 05:13:13;;;;;;;;;9.00;6.25;;;;;-142.59;100.00;56100.38;4971114;28;49820;-67
2023/03/19 05:15:42;;;;;;;;;14.00;10.25;;;;;-142.59;100.00;56100.38;4971307;28;50010;-61
2023/03/19 05:18:07;;;;;;;;;13.50;9.75;;;;;-142.59;100.00;56100.38;4970978;28;50946;-65
2023/03/19 05:20:33;;;;;;;;;10.50;9.75;;;;;-142.59;100.00;56100.38;4971274;28;49717;-61
2023/03/19 05:22:59;;;;;;;;;7.50;6.50;;;;;-142.59;100.00;56100.38;4952278;28;49747;-61
2023/03/19 05:25:24;;;;;;;;;9.00;9.00;;;;;-142.59;100.00;56100.38;4952167;28;49781;-62
2023/03/19 05:27:50;;;;;;;;;7.25;7.25;;;;;-142.59;100.00;56100.38;4951697;28;49938;-64
2023/03/19 05:30:17;;;;;;;;;4.00;4.00;;;;;-142.59;100.00;56100.38;4952309;28;50225;-63
2023/03/19 05:32:43;;;;;;;;;11.25;8.00;;;;;-142.59;100.00;56100.38;4952311;28;49725;-62
2023/03/19 05:35:08;;;;;;;;;10.25;8.25;;;;;-142.59;100.00;56100.38;4952432;28;50278;-61
2023/03/19 05:37:34;;;;;;;;;6.50;6.50;;;;;-142.59;100.00;56100.38;4952165;28;50396;-70
2023/03/19 05:39:59;;;;;;;;;12.75;11.50;;;;;-142.59;100.00;56100.38;4952667;28;49679;-66
2023/03/19 05:42:25;;;;;;;;;8.50;8.50;;;;;-142.59;100.00;56100.38;4952500;28;50278;-61
2023/03/19 05:44:50;;;;;;;;;8.25;8.25;;;;;-142.59;100.00;56100.38;4952396;28;50186;-67
2023/03/19 05:47:16;;;;;;;;;9.75;9.75;;;;;-142.59;100.00;56100.38;4951831;28;50233;-71
2023/03/19 05:49:41;;;;;;;;;12.25;11.50;;;;;-142.59;100.00;56100.38;4952119;28;50187;-63
2023/03/19 05:52:06;;;;;;;;;12.25;12.00;;;;;-142.59;100.00;56100.38;4952081;28;49858;-62
2023/03/19 05:54:32;;;;;;;;;11.00;11.00;;;;;-142.59;100.00;56100.38;4952003;28;50015;-64
2023/03/19 05:56:58;;;;;;;;;10.00;10.00;;;;;-142.59;100.00;56100.38;4969748;28;50494;-62
2023/03/19 05:59:23;;;;;;;;;9.25;9.00;;;;;-142.59;100.00;56100.38;4970820;28;49944;-63
2023/03/19 06:01:48;;;;;;;;;11.25;10.50;;;;;-142.59;100.00;56100.38;4963398;28;49796;-62
2023/03/19 06:04:14;;;;;;;;;9.25;9.25;;;;;-142.59;100.00;56100.38;4956341;28;49635;-60
2023/03/19 06:06:40;;;;;;;;;10.50;10.50;;;;;-142.59;100.00;56100.38;4954020;28;50417;-61
2023/03/19 06:09:05;;;;;;;;;11.00;10.50;;;;;-142.59;100.00;56100.38;4951111;28;50282;-75
2023/03/19 06:11:31;;;;;;;;;11.50;11.50;;;;;-142.59;100.00;56100.38;4949776;28;49824;-61
2023/03/19 06:13:56;;;;;;;;;10.50;10.25;;;;;-142.59;100.00;56100.38;4951796;28;49682;-64
2023/03/19 06:16:21;;;;;;;;;13.50;11.50;;;;;-142.59;100.00;56100.38;4951978;28;49808;-69
2023/03/19 06:18:47;;;;;;;;;13.00;11.25;;;;;-142.59;100.00;56100.38;4952245;28;49667;-72
2023/03/19 06:21:12;;;;;;;;;10.75;10.75;;;;;-142.59;100.00;56100.38;4952145;28;50424;-65
2023/03/19 06:23:37;;;;;;;;;11.00;11.00;;;;;-142.59;100.00;56100.38;4952102;28;49596;-64
2023/03/19 06:26:04;;;;;;;;;10.75;10.50;;;;;-142.59;100.00;56100.38;4951498;28;50070;-72
2023/03/19 06:28:30;;;;;;;;;9.75;9.75;;;;;-142.59;100.00;56100.38;4951621;28;49646;-63
2023/03/19 06:30:55;;;;;;;;;7.50;7.50;;;;;-142.59;100.00;56100.38;4951945;28;49740;-69
2023/03/19 06:33:21;;;;;;;;;12.25;10.75;;;;;-142.59;100.00;56100.38;4951931;28;49946;-76
2023/03/19 06:35:47;;;;;;;;;10.25;10.25;;;;;-142.59;100.00;56100.38;4951293;28;49854;-67
2023/03/19 06:38:13;;;;;;;;;10.00;10.00;;;;;-142.59;100.00;56100.38;4951637;28;49712;-63
2023/03/19 06:40:38;;;;;;;;;11.75;11.75;;;;;-142.59;100.00;56100.38;4951452;28;49965;-64
2023/03/19 06:43:04;;;;;;;;;11.00;11.00;;;;;-142.59;100.00;56100.38;4951756;28;49698;-63
2023/03/19 06:45:29;;;;;;;;;9.25;9.25;;;;;-142.59;100.00;56100.38;4950953;28;51372;-67
2023/03/19 06:47:55;;;;;;;;;14.00;10.75;;;;;-142.59;100.00;56100.38;4951487;28;49720;-75
2023/03/19 06:50:21;;;;;;;;;10.50;10.50;;;;;-142.59;100.00;56100.38;4934191;28;49646;-62
2023/03/19 06:52:47;;;;;;;;;13.75;12.00;;;;;-142.59;100.00;56100.38;4951409;28;49742;-66
2023/03/19 06:55:12;;;;;;;;;6.50;6.50;;;;;-142.59;100.00;56100.38;4951269;28;50707;-64
2023/03/19 06:57:38;;;;;;;;;12.50;12.25;;;;;-142.59;100.00;56100.38;4950854;28;49847;-63
2023/03/19 07:00:04;;;;;;;;;12.25;10.25;;;;;-142.59;100.00;56100.38;4950634;28;49768;-68
2023/03/19 07:02:30;;;;;;;;;9.75;9.50;;;;;-142.59;100.00;56100.38;4950876;28;50005;-72
2023/03/19 07:04:55;;;;;;;;;11.75;11.25;;;;;-142.59;100.00;56100.38;4950873;28;50854;-64
2023/03/19 07:07:21;;;;;;;;;13.50;13.50;;;;;-142.59;100.00;56100.38;4957210;28;49895;-64
2023/03/19 07:09:47;;;;;;;;;10.50;10.50;;;;;-142.59;100.00;56100.38;4953797;28;49895;-62
2023/03/19 07:12:12;;;;;;;;;11.75;11.75;;;;;-142.59;100.00;56100.38;4965767;28;50142;-62
2023/03/19 07:14:38;;;;;;;;;9.25;9.25;;;;;-142.59;100.00;56100.38;4955467;28;50641;-74
2023/03/19 07:17:03;;;;;;;;;11.75;11.50;;;;;-142.59;100.00;56100.38;4960653;28;50147;-62
2023/03/19 07:19:29;;;;;;;;;9.00;7.75;;;;;-142.59;100.00;56100.38;4954684;28;49884;-70
2023/03/19 07:21:54;;;;;;;;;11.00;11.00;;;;;-142.59;100.00;56100.38;4951431;28;49828;-62
2023/03/19 07:24:20;;;;;;;;;11.00;10.00;;;;;-142.59;100.00;56100.38;4951377;28;50876;-62
2023/03/19 07:26:46;;;;;;;;;11.50;10.00;;;;;-142.59;100.00;56100.38;4953267;28;49975;-62
2023/03/19 07:29:16;;;;;;;;;11.75;9.25;;;;;-142.59;100.00;56100.38;4951680;28;49732;-62
2023/03/19 07:31:41;;;;;;;;;7.50;7.00;;;;;-142.59;100.00;56100.38;4954882;28;49855;-63
2023/03/19 07:34:07;;;;;;;;;5.00;5.00;;;;;-142.59;100.00;56100.38;4951828;28;49892;-62
2023/03/19 07:36:32;;;;;;;;;6.25;6.25;;;;;-142.59;100.00;56100.38;4952926;28;50072;-62
2023/03/19 07:38:58;;;;;;;;;9.75;9.75;;;;;-142.59;100.00;56100.38;4950310;28;50250;-61
2023/03/19 07:41:23;;;;;;;;;7.00;7.00;;;;;-142.59;100.00;56100.38;4951903;28;50019;-62
2023/03/19 07:43:48;;;;;;;;;9.25;9.00;;;;;-142.59;100.00;56100.38;4953492;28;50445;-65
2023/03/19 07:46:14;;;;;;;;;8.00;7.50;;;;;-142.59;100.00;56100.38;4952203;28;49811;-62
2023/03/19 07:48:40;;;;;;;;;6.75;6.00;;;;;-142.59;100.00;56100.38;4951240;28;50410;-62
2023/03/19 07:51:06;;;;;;;;;1.00;1.00;;;;;-142.59;100.00;56100.38;4953774;28;49987;-64
2023/03/19 07:53:31;;;;;;;;;12.75;9.00;;;;;-142.59;100.00;56100.38;4951224;28;50929;-63
2023/03/19 07:55:57;;;;;;;;;8.25;6.25;;;;;-142.59;100.00;56100.38;4953427;28;49843;-62
2023/03/19 07:58:22;;;;;;;;;5.50;5.50;;;;;-142.59;100.00;56100.38;4951441;28;49980;-66
2023/03/19 08:00:48;;;;;;;;;5.25;5.25;;;;;-142.59;100.00;56100.38;4952980;28;49712;-62
2023/03/19 08:03:13;;;;;;;;;7.25;6.25;;;;;-142.59;100.00;56100.38;4952752;28;49724;-62
2023/03/19 08:05:39;;;;;;;;;10.25;10.25;;;;;-142.59;100.00;56100.38;4953568;28;49765;-69
2023/03/19 08:08:04;;;;;;;;;7.00;6.75;;;;;-142.59;100.00;56100.38;4952702;28;50136;-72
2023/03/19 08:10:30;;;;;;;;;8.75;5.25;;;;;-142.59;100.00;56100.38;4955108;28;50003;-61
2023/03/19 08:12:55;;;;;;;;;4.00;4.00;;;;;-142.59;100.00;56100.38;4953276;28;50622;-70
2023/03/19 08:15:21;;;;;;;;;9.50;9.00;;;;;-142.59;100.00;56100.38;4954837;28;49736;-64
2023/03/19 08:17:46;;;;;;;;;8.00;5.75;;;;;-142.59;100.00;56100.38;4949811;28;49978;-66
2023/03/19 08:20:17;;;;;;;;;4.75;4.75;;;;;-142.59;100.00;56100.38;4950971;28;50921;-63
2023/03/19 08:22:47;;;;;;;;;7.75;7.00;;;;;-142.59;100.00;56100.38;4950367;28;49833;-66
2023/03/19 08:25:13;;;;;;;;;5.00;5.00;;;;;-142.59;100.00;56100.38;4951389;28;49854;-79
2023/03/19 08:27:38;;;;;;;;;4.75;4.75;;;;;-142.59;100.00;56100.38;4954871;28;49941;-74
2023/03/19 08:30:06;;;;;;;;;8.25;6.00;;;;;-142.59;100.00;56100.38;4951592;28;49808;-68
2023/03/19 08:32:34;;;;;;;;;9.50;9.50;;;;;-142.59;100.00;56100.38;4956665;28;49791;-69
2023/03/19 08:35:01;;;;;;;;;10.50;10.50;;;;;-142.59;100.00;56100.38;4949304;28;49708;-71
2023/03/19 08:37:26;;;;;;;;;10.25;7.25;;;;;-142.59;100.00;56100.38;4956077;28;49946;-70
2023/03/19 08:39:51;;;;;;;;;10.25;9.50;;;;;-142.59;100.00;56100.38;4955906;28;50036;-69
2023/03/19 08:42:21;;;;;;;;;11.00;9.75;;;;;-142.59;100.00;56100.38;4951960;28;50693;-81
2023/03/19 08:44:49;;;;;;;;;11.00;10.00;;;;;-142.59;100.00;56100.38;4949312;28;49752;-81
2023/03/19 08:47:15;;;;;;;;;14.25;12.50;;;;;-142.59;100.00;56100.38;4933949;28;50619;-68
2023/03/19 08:49:41;;;;;;;;;10.25;10.25;;;;;-142.59;100.00;56100.38;4949820;28;50084;-68
2023/03/19 08:52:07;;;;;;;;;12.75;10.75;;;;;-142.59;100.00;56100.38;4936557;28;51112;-69
2023/03/19 08:54:32;;;;;;;;;12.75;11.50;;;;;-142.59;100.00;56100.38;4957315;28;49877;-68
2023/03/19 08:56:59;;;;;;;;;10.50;8.75;;;;;-142.59;100.00;56100.38;4955150;28;49967;-70
2023/03/19 08:59:25;;;;;;;;;10.25;7.50;;;;;-142.59;100.00;56100.38;4952488;28;49713;-66
2023/03/19 09:01:51;;;;;;;;;10.50;9.50;;;;;-142.59;100.00;56100.38;4954773;28;50962;-67
2023/03/19 09:04:17;;;;;;;;;9.00;8.00;;;;;-142.59;100.00;56100.38;4963352;28;50041;-70
2023/03/19 09:06:43;;;;;;;;;11.25;9.50;;;;;-142.59;100.00;56100.38;4972021;28;49848;-72
2023/03/19 09:09:09;;;;;;;;;11.75;11.75;;;;;-142.59;100.00;56100.38;4972074;28;49689;-69
2023/03/19 09:11:35;;;;;;;;;11.00;9.50;;;;;-142.59;100.00;56100.38;4971702;28;49970;-74
2023/03/19 09:14:01;;;;;;;;;13.25;12.50;;;;;-142.59;100.00;56100.38;4971717;28;50146;-74
2023/03/19 09:16:26;;;;;;;;;8.75;8.75;;;;;-142.59;100.00;56100.38;4971928;28;49777;-63
2023/03/19 09:18:52;;;;;;;;;10.50;9.00;;;;;-142.59;100.00;56100.38;4971860;28;49700;-73
2023/03/19 09:21:17;;;;;;;;;7.75;7.75;;;;;-142.59;100.00;56100.38;4971640;28;51084;-72
2023/03/19 09:23:43;;;;;;;;;9.00;6.25;;;;;-142.59;100.00;56100.38;4971682;28;49754;-79
2023/03/19 09:26:08;;;;;;;;;6.00;6.00;;;;;-142.59;100.00;56100.38;4971730;28;50588;-79
2023/03/19 09:28:35;;;;;;;;;4.00;4.00;;;;;-142.59;100.00;56100.38;4971896;28;49711;-64
2023/03/19 09:31:05;;;;;;;;;5.00;5.00;;;;;-142.59;100.00;56100.38;4963495;28;51049;-68
2023/03/19 09:33:31;;;;;;;;;7.00;5.00;;;;;-142.59;100.00;56100.38;4971518;28;49835;-68
2023/03/19 09:35:57;;;;;;;;;5.25;4.75;;;;;-142.59;100.00;56100.38;4960991;28;49625;-69
2023/03/19 09:38:23;;;;;;;;;9.00;5.00;;;;;-142.59;100.00;56100.38;4935097;28;50039;-68
2023/03/19 09:41:03;;;;;;;;;7.25;6.00;;;;;-142.59;100.00;56100.38;4952356;28;49880;-69
2023/03/19 09:43:42;;;;;;;;;9.25;5.25;;;;;-142.59;100.00;56100.38;4950654;28;50235;-67
2023/03/19 09:46:15;;;;;;;;;7.75;5.00;;;;;-142.59;100.00;56100.38;4935199;28;49945;-69
2023/03/19 09:49:13;;;;;;;;;5.75;5.00;;;;;-142.59;100.00;56100.38;4952511;28;49770;-67
2023/03/19 09:51:51;;;;;;;;;4.00;4.00;;;;;-142.59;100.00;56100.38;4952002;28;51323;-67
2023/03/19 09:54:47;;;;;;;;;3.00;3.00;;;;;-142.59;100.00;56100.38;4952292;28;49601;-68
2023/03/19 09:57:14;;;;;;;;;10.25;8.00;;;;;-142.59;100.00;56100.38;4952466;28;49798;-68
2023/03/19 09:59:40;;;;;;;;;6.25;6.00;;;;;-142.59;100.00;56100.38;4952715;28;49809;-67
2023/03/19 10:02:20;;;;;;;;;4.75;4.75;;;;;-142.59;100.00;56100.38;4934793;28;52389;-68
2023/03/19 10:04:57;;;;;;;;;9.00;6.75;;;;;-142.59;100.00;56100.38;4958796;28;49773;-68
2023/03/19 10:07:58;;;;;;;;;9.50;7.00;;;;;-142.59;100.00;56100.38;4952406;28;49816;-68
2023/03/19 10:10:42;;;;;;;;;7.00;7.00;;;;;-142.59;100.00;56100.38;4901369;28;50193;-68
2023/03/19 10:13:45;;;;;;;;;9.75;8.00;;;;;-142.59;100.00;56100.38;4952003;28;50731;-70
2023/03/19 10:16:18;;;;;;;;;6.25;5.00;;;;;-142.59;100.00;56100.38;4952269;28;49654;-69
2023/03/19 10:18:48;;;;;;;;;7.50;7.50;;;;;-142.59;100.00;56100.38;4952245;28;49761;-69
2023/03/19 10:21:31;;;;;;;;;8.75;7.25;;;;;-142.59;100.00;56100.38;4952403;28;49638;-68
2023/03/19 10:24:06;;;;;;;;;8.75;8.75;;;;;-142.59;100.00;56100.38;4955457;28;49958;-68
2023/03/19 10:26:36;;;;;;;;;6.00;6.00;;;;;-142.59;100.00;56100.38;4953167;28;49807;-70
2023/03/19 10:29:10;;;;;;;;;9.50;9.50;;;;;-142.59;100.00;56100.38;4973425;28;49815;-71
2023/03/19 10:31:43;;;;;;;;;9.50;8.25;;;;;-142.59;100.00;56100.38;4970821;28;49667;-64
2023/03/19 10:34:18;;;;;;;;;9.50;7.75;;;;;-142.59;100.00;56100.38;4935465;28;51787;-65
2023/03/19 10:36:43;;;;;;;;;9.25;7.50;;;;;-142.59;100.00;56100.38;4965461;28;49806;-67
2023/03/19 10:39:08;;;;;;;;;9.75;9.75;;;;;-142.59;100.00;56100.38;4953097;28;49904;-68
2023/03/19 10:41:44;;;;;;;;;10.25;10.25;;;;;-142.59;100.00;56100.38;4970599;28;49927;-67
2023/03/19 10:44:27;;;;;;;;;13.00;11.00;;;;;-142.59;100.00;56100.38;4973554;28;49779;-66
2023/03/19 10:46:52;;;;;;;;;13.75;12.00;;;;;-142.59;100.00;56100.38;4974072;28;49794;-67
2023/03/19 10:49:17;;;;;;;;;5.00;3.75;;;;;-142.59;100.00;56100.38;4972388;28;49854;-66
2023/03/19 10:51:45;;;;;;;;;3.00;3.00;;;;;-142.59;100.00;56100.38;4970842;28;49721;-68
2023/03/19 10:54:22;;;;;;;;;4.00;4.00;;;;;-142.59;100.00;56100.38;4973855;28;49707;-64
2023/03/19 10:56:48;;;;;;;;;4.50;4.00;;;;;-142.59;100.00;56100.38;4963010;28;49783;-63
2023/03/19 10:59:25;;;;;;;;;2.50;2.50;;;;;-142.59;100.00;56100.38;4972342;28;49827;-68
2023/03/19 11:02:02;;;;;;;;;4.00;2.00;;;;;-142.59;100.00;56100.38;4971822;28;49775;-66
2023/03/19 11:04:28;;;;;;;;;7.00;4.00;;;;;-142.59;100.00;56100.38;4953118;28;49964;-64
2023/03/19 11:07:12;;;;;;;;;8.00;4.50;;;;;-142.59;100.00;56100.38;4956288;28;49948;-66